createdAt,value
2023-04-26T00:04:41.598Z,3.35
2023-04-26T00:10:03.448Z,3.67
2023-04-26T00:15:25.424Z,3.20
2023-04-26T00:20:47.418Z,3.25
2023-04-26T00:26:09.409Z,3.58
2023-04-26T00:31:31.476Z,3.90
2023-04-26T00:36:53.409Z,3.80
2023-04-26T00:42:15.425Z,3.90
2023-04-26T00:47:37.460Z,3.78
2023-04-26T00:53:00.417Z,4.10
2023-04-26T00:58:22.398Z,3.83
2023-04-26T01:03:44.582Z,3.63
2023-04-26T01:09:08.442Z,3.75
2023-04-26T01:14:31.413Z,3.72
2023-04-26T01:19:54.411Z,3.75
2023-04-26T01:25:18.433Z,4.18
2023-04-26T01:30:40.410Z,3.63
2023-04-26T01:36:02.391Z,3.67
2023-04-26T01:41:24.389Z,3.80
2023-04-26T01:46:48.449Z,3.55
2023-04-26T01:52:10.394Z,3.70
2023-04-26T01:57:34.399Z,3.53
2023-04-26T02:02:56.458Z,3.65
2023-04-26T02:08:18.374Z,3.92
2023-04-26T02:13:40.398Z,4.07
2023-04-26T02:19:02.407Z,3.88
2023-04-26T02:24:24.383Z,3.63
2023-04-26T02:29:46.372Z,4.32
2023-04-26T02:35:08.395Z,3.50
2023-04-26T02:40:30.375Z,3.70
2023-04-26T02:45:52.385Z,4.25
2023-04-26T02:51:14.380Z,6.40
2023-04-26T02:56:36.389Z,7.80
2023-04-26T03:01:58.402Z,5.40
2023-04-26T03:07:20.364Z,4.70
2023-04-26T03:12:42.366Z,4.03
2023-04-26T03:18:04.427Z,4.88
2023-04-26T03:23:26.378Z,4.85
2023-04-26T03:28:48.355Z,4.35
2023-04-26T03:34:10.347Z,4.63
2023-04-26T03:39:33.339Z,4.47
2023-04-26T03:44:55.370Z,4.47
2023-04-26T03:50:17.372Z,5.13
2023-04-26T03:55:39.362Z,4.25
2023-04-26T04:01:05.329Z,4.28
2023-04-26T04:06:27.375Z,4.70
2023-04-26T04:11:49.340Z,4.50
2023-04-26T04:17:11.340Z,4.53
2023-04-26T04:22:33.336Z,4.03
2023-04-26T04:27:56.332Z,4.05
2023-04-26T04:33:18.315Z,4.38
2023-04-26T04:38:40.330Z,4.30
2023-04-26T04:44:04.338Z,4.50
2023-04-26T04:49:26.334Z,4.53
2023-04-26T04:54:48.315Z,4.15
2023-04-26T05:00:16.334Z,4.25
2023-04-26T05:05:43.315Z,4.20
2023-04-26T05:11:05.318Z,4.25
2023-04-26T05:16:27.331Z,3.97
2023-04-26T05:21:51.312Z,3.85
2023-04-26T05:27:13.327Z,4.35
2023-04-26T05:32:41.339Z,3.93
2023-04-26T05:38:21.326Z,4.13
2023-04-26T05:43:43.324Z,3.90
2023-04-26T05:49:05.310Z,4.15
2023-04-26T05:54:28.313Z,3.72
2023-04-26T05:59:51.342Z,3.53
2023-04-26T06:05:15.470Z,3.90
2023-04-26T06:10:37.329Z,3.67
2023-04-26T06:15:59.318Z,3.53
2023-04-26T06:21:21.343Z,3.97
2023-04-26T06:26:43.310Z,3.80
2023-04-26T06:32:05.316Z,3.67
2023-04-26T06:37:27.310Z,3.53
2023-04-26T06:42:49.275Z,3.13
2023-04-26T06:48:26.283Z,3.20
2023-04-26T06:53:48.305Z,2.90
2023-04-26T06:59:14.294Z,3.15
2023-04-26T07:04:43.453Z,3.33
2023-04-26T07:10:05.291Z,2.70
2023-04-26T07:15:27.306Z,3.40
2023-04-26T07:20:49.321Z,3.13
2023-04-26T07:26:11.298Z,2.75
2023-04-26T07:31:33.284Z,2.40
2023-04-26T07:36:55.304Z,2.20
2023-04-26T07:42:17.282Z,2.22
2023-04-26T07:47:39.321Z,2.13
2023-04-26T07:53:01.281Z,2.20
2023-04-26T07:58:23.285Z,2.20
2023-04-26T08:03:45.646Z,2.38
2023-04-26T08:09:07.290Z,2.35
2023-04-26T08:14:29.354Z,2.10
2023-04-26T08:19:51.262Z,2.60
2023-04-26T08:25:13.273Z,1.92
2023-04-26T08:30:35.308Z,2.20
2023-04-26T08:35:57.268Z,2.25
2023-04-26T08:41:21.287Z,2.03
2023-04-26T08:47:13.239Z,2.28
2023-04-26T08:52:35.272Z,2.80
2023-04-26T08:57:57.253Z,2.10
2023-04-26T09:03:19.377Z,2.75
2023-04-26T09:08:45.257Z,2.40
2023-04-26T09:14:07.250Z,2.60
2023-04-26T09:19:43.253Z,2.35
2023-04-26T09:25:05.281Z,2.13
2023-04-26T09:30:28.258Z,2.17
2023-04-26T09:35:54.250Z,2.25
2023-04-26T09:41:16.313Z,2.20
2023-04-26T09:46:38.343Z,2.00
2023-04-26T09:52:07.240Z,2.20
2023-04-26T09:57:31.229Z,1.98
2023-04-26T10:03:00.380Z,2.30
2023-04-26T10:08:23.269Z,1.88
2023-04-26T10:13:45.242Z,2.30
2023-04-26T10:19:07.249Z,2.40
2023-04-26T10:24:29.223Z,1.80
2023-04-26T10:30:03.217Z,1.73
2023-04-26T10:35:27.240Z,2.28
2023-04-26T10:40:49.234Z,1.92
2023-04-26T10:46:11.273Z,2.20
2023-04-26T10:51:33.210Z,1.50
2023-04-26T10:56:55.222Z,2.45
2023-04-26T11:02:17.228Z,2.03
2023-04-26T11:07:52.207Z,2.05
2023-04-26T11:13:14.229Z,2.40
2023-04-26T11:18:37.225Z,2.38
2023-04-26T11:24:00.204Z,2.03
2023-04-26T11:29:22.229Z,2.10
2023-04-26T11:34:45.220Z,2.17
2023-04-26T11:40:07.241Z,1.98
2023-04-26T11:45:29.391Z,1.98
2023-04-26T11:50:52.255Z,2.10
2023-04-26T11:56:28.214Z,1.55
2023-04-26T12:01:50.368Z,1.85
2023-04-26T12:07:13.250Z,1.80
2023-04-26T12:12:37.242Z,1.75
2023-04-26T12:18:04.289Z,1.98
2023-04-26T12:23:28.245Z,1.83
2023-04-26T12:28:50.227Z,1.50
2023-04-26T12:34:12.195Z,1.70
2023-04-26T12:39:34.209Z,2.00
2023-04-26T12:44:56.216Z,1.80
2023-04-26T12:50:19.238Z,1.85
2023-04-26T12:55:41.265Z,1.80
2023-04-26T13:01:03.526Z,1.95
2023-04-26T13:06:25.497Z,1.95
2023-04-26T13:11:47.216Z,1.73
2023-04-26T13:17:09.392Z,1.80
2023-04-26T13:22:31.210Z,2.10
2023-04-26T13:27:53.223Z,1.90
2023-04-26T13:33:15.246Z,1.73
2023-04-26T13:38:44.228Z,1.75
2023-04-26T13:44:07.237Z,1.60
2023-04-26T13:49:29.260Z,2.00
2023-04-26T13:54:51.211Z,1.73
2023-04-26T14:00:13.204Z,1.80
2023-04-26T14:05:42.217Z,1.50
2023-04-26T14:11:04.195Z,1.77
2023-04-26T14:16:26.261Z,1.70
2023-04-26T14:21:49.212Z,1.77
2023-04-26T14:27:11.203Z,1.70
2023-04-26T14:32:33.217Z,1.80
2023-04-26T14:37:55.198Z,2.08
2023-04-26T14:43:17.172Z,1.60
2023-04-26T14:48:39.165Z,1.50
2023-04-26T14:54:01.225Z,2.20
2023-04-26T14:59:23.193Z,2.22
2023-04-26T15:04:52.332Z,1.98
2023-04-26T15:10:15.163Z,1.58
2023-04-26T15:15:37.438Z,2.03
2023-04-26T15:20:59.462Z,1.90
2023-04-26T15:26:21.450Z,1.75
2023-04-26T15:31:43.257Z,1.40
2023-04-26T15:37:05.168Z,1.67
2023-04-26T15:42:27.160Z,1.60
2023-04-26T15:47:49.193Z,1.40
2023-04-26T15:53:11.226Z,1.63
2023-04-26T15:58:33.295Z,1.90
2023-04-26T16:04:02.241Z,1.98
2023-04-26T16:09:26.248Z,1.85
2023-04-26T16:14:48.175Z,2.03
2023-04-26T16:20:12.225Z,2.00
2023-04-26T16:25:34.194Z,1.90
2023-04-26T16:30:56.191Z,1.80
2023-04-26T16:36:18.186Z,2.30
2023-04-26T16:41:40.172Z,1.60
2023-04-26T16:47:02.172Z,1.83
2023-04-26T16:52:24.189Z,1.90
2023-04-26T16:57:46.296Z,1.90
2023-04-26T17:03:15.380Z,1.60
2023-04-26T17:08:37.135Z,1.50
2023-04-26T17:13:59.132Z,1.50
2023-04-26T17:19:21.140Z,1.65
2023-04-26T17:24:43.136Z,1.70
2023-04-26T17:30:05.233Z,1.60
2023-04-26T17:35:27.159Z,1.83
2023-04-26T17:40:49.163Z,2.05
2023-04-26T17:46:11.231Z,1.85
2023-04-26T17:51:33.238Z,1.50
2023-04-26T17:56:55.147Z,1.50
2023-04-26T18:02:17.258Z,1.65
2023-04-26T18:07:39.132Z,1.90
2023-04-26T18:13:01.118Z,1.92
2023-04-26T18:18:24.574Z,1.90
2023-04-26T18:23:47.128Z,1.80
2023-04-26T18:29:09.130Z,1.70
2023-04-26T18:34:31.127Z,1.60
2023-04-26T18:39:53.101Z,1.95
2023-04-26T18:45:15.116Z,1.90
2023-04-26T18:50:37.128Z,1.65
2023-04-26T18:56:02.133Z,1.52
2023-04-26T19:01:24.197Z,1.85
2023-04-26T19:06:54.126Z,2.00
2023-04-26T19:12:16.153Z,1.73
2023-04-26T19:17:40.143Z,2.28
2023-04-26T19:23:02.161Z,1.70
2023-04-26T19:28:24.124Z,1.70
2023-04-26T19:33:47.120Z,1.77
2023-04-26T19:39:09.114Z,1.38
2023-04-26T19:44:31.095Z,1.77
2023-04-26T19:49:54.108Z,1.90
2023-04-26T19:55:17.153Z,1.75
2023-04-26T20:00:42.142Z,1.70
2023-04-26T20:06:11.177Z,1.60
2023-04-26T20:11:33.118Z,1.90
2023-04-26T20:16:55.139Z,1.77
2023-04-26T20:22:17.117Z,1.85
2023-04-26T20:27:39.089Z,1.73
2023-04-26T20:33:01.176Z,2.08
2023-04-26T20:38:23.093Z,1.50
2023-04-26T20:43:45.078Z,1.80
2023-04-26T20:49:07.177Z,1.70
2023-04-26T20:54:29.112Z,1.83
2023-04-26T20:59:51.089Z,1.55
2023-04-26T21:05:20.100Z,1.95
2023-04-26T21:10:57.107Z,1.92
2023-04-26T21:16:19.175Z,2.17
2023-04-26T21:21:41.076Z,1.80
2023-04-26T21:27:03.094Z,1.73
2023-04-26T21:32:25.108Z,1.60
2023-04-26T21:37:47.091Z,1.40
2023-04-26T21:43:09.106Z,1.60
2023-04-26T21:48:31.057Z,1.80
2023-04-26T21:53:53.073Z,2.47
2023-04-26T21:59:16.081Z,2.33
2023-04-26T22:04:38.079Z,2.13
2023-04-26T22:10:00.123Z,1.85
2023-04-26T22:15:22.117Z,2.30
2023-04-26T22:20:44.087Z,2.33
2023-04-26T22:26:07.064Z,1.52
2023-04-26T22:31:29.107Z,1.80
2023-04-26T22:36:51.068Z,1.85
2023-04-26T22:42:13.079Z,1.95
2023-04-26T22:47:35.082Z,2.00
2023-04-26T22:52:57.069Z,2.00
2023-04-26T22:58:19.083Z,2.05
2023-04-26T23:03:44.085Z,1.83
2023-04-26T23:09:06.059Z,2.10
2023-04-26T23:14:28.059Z,1.70
2023-04-26T23:19:50.038Z,1.63
2023-04-26T23:25:12.070Z,1.42
2023-04-26T23:30:34.058Z,2.15
2023-04-26T23:35:56.092Z,1.90
2023-04-26T23:41:18.078Z,1.60
2023-04-26T23:46:40.105Z,1.92
2023-04-26T23:52:02.034Z,1.90
2023-04-26T23:57:24.053Z,1.95
